createdAt,value
2022-09-09T00:01:33.878Z,3.75
2022-09-09T00:04:13.819Z,3.20
2022-09-09T00:06:49.404Z,3.45
2022-09-09T00:09:22.489Z,4.03
2022-09-09T00:11:54.205Z,2.85
2022-09-09T00:14:35.694Z,3.58
2022-09-09T00:17:09.527Z,4.28
2022-09-09T00:20:15.042Z,3.20
2022-09-09T00:23:09.105Z,3.70
2022-09-09T00:25:40.985Z,4.72
2022-09-09T00:28:18.617Z,3.47
2022-09-09T00:30:49.271Z,3.75
2022-09-09T00:33:19.949Z,3.47
2022-09-09T00:35:50.705Z,3.95
2022-09-09T00:38:34.162Z,3.83
2022-09-09T00:41:25.566Z,3.72
2022-09-09T00:44:12.690Z,3.05
2022-09-09T00:46:48.563Z,4.18
2022-09-09T00:49:59.264Z,3.90
2022-09-09T00:52:49.327Z,3.45
2022-09-09T00:55:41.754Z,3.20
2022-09-09T00:58:10.367Z,3.70
2022-09-09T01:00:42.581Z,5.07
2022-09-09T01:03:15.962Z,4.63
2022-09-09T01:05:56.166Z,4.97
2022-09-09T01:08:39.257Z,4.22
2022-09-09T01:11:13.435Z,6.32
2022-09-09T01:13:43.142Z,4.40
2022-09-09T01:16:12.723Z,4.28
2022-09-09T01:18:52.398Z,5.00
2022-09-09T01:21:36.047Z,4.43
2022-09-09T01:24:31.197Z,4.60
2022-09-09T01:27:21.845Z,4.78
2022-09-09T01:29:49.185Z,5.28
2022-09-09T01:32:44.308Z,6.88
2022-09-09T01:35:24.243Z,4.47
2022-09-09T01:37:51.312Z,4.88
2022-09-09T01:40:18.421Z,5.72
2022-09-09T01:42:46.989Z,5.65
2022-09-09T01:45:14.397Z,5.30
2022-09-09T01:47:41.712Z,4.97
2022-09-09T01:50:19.759Z,4.97
2022-09-09T01:52:50.345Z,4.90
2022-09-09T01:55:29.308Z,4.88
2022-09-09T01:58:12.768Z,6.30
2022-09-09T02:01:10.799Z,6.75
2022-09-09T02:03:38.394Z,5.85
2022-09-09T02:06:36.750Z,4.63
2022-09-09T02:09:25.499Z,4.83
2022-09-09T02:12:09.243Z,4.53
2022-09-09T02:14:47.924Z,5.43
2022-09-09T02:17:22.628Z,5.38
2022-09-09T02:20:13.890Z,4.75
2022-09-09T02:22:50.589Z,4.25
2022-09-09T02:25:23.269Z,4.00
2022-09-09T02:27:55.027Z,3.83
2022-09-09T02:30:22.635Z,4.68
2022-09-09T02:33:00.502Z,3.85
2022-09-09T02:35:43.220Z,3.83
2022-09-09T02:38:15.862Z,6.15
2022-09-09T02:40:54.450Z,4.45
2022-09-09T02:43:21.708Z,4.85
2022-09-09T02:46:14.724Z,4.82
2022-09-09T02:49:03.014Z,4.75
2022-09-09T02:52:01.238Z,4.43
2022-09-09T02:54:32.392Z,4.50
2022-09-09T02:57:24.285Z,6.72
2022-09-09T02:59:53.414Z,7.97
2022-09-09T03:02:20.545Z,5.90
2022-09-09T03:04:52.980Z,4.45
2022-09-09T03:07:20.800Z,4.75
2022-09-09T03:09:49.960Z,4.97
2022-09-09T03:12:17.565Z,4.85
2022-09-09T03:14:47.038Z,4.80
2022-09-09T03:17:14.563Z,4.53
2022-09-09T03:19:50.654Z,6.00
2022-09-09T03:22:17.832Z,7.00
2022-09-09T03:24:47.716Z,6.43
2022-09-09T03:27:18.524Z,4.72
2022-09-09T03:29:46.195Z,4.65
2022-09-09T03:32:19.404Z,6.05
2022-09-09T03:34:50.616Z,6.70
2022-09-09T03:37:18.882Z,6.25
2022-09-09T03:39:46.405Z,6.97
2022-09-09T03:42:15.484Z,5.68
2022-09-09T03:44:43.047Z,7.88
2022-09-09T03:47:10.204Z,5.40
2022-09-09T03:49:38.290Z,5.68
2022-09-09T03:52:05.554Z,5.68
2022-09-09T03:54:32.706Z,5.40
2022-09-09T03:56:59.636Z,5.68
2022-09-09T03:59:26.681Z,5.68
2022-09-09T04:01:54.185Z,5.22
2022-09-09T04:04:21.539Z,5.90
2022-09-09T04:06:49.513Z,4.82
2022-09-09T04:09:16.503Z,5.63
2022-09-09T04:11:43.571Z,5.38
2022-09-09T04:14:10.466Z,5.78
2022-09-09T04:16:38.536Z,5.80
2022-09-09T04:19:07.733Z,4.57
2022-09-09T04:21:35.517Z,5.65
2022-09-09T04:24:03.277Z,5.18
2022-09-09T04:26:30.322Z,5.18
2022-09-09T04:28:57.293Z,8.52
2022-09-09T04:31:24.812Z,6.60
2022-09-09T04:33:55.090Z,6.32
2022-09-09T04:36:23.519Z,8.05
2022-09-09T04:38:54.784Z,8.35
2022-09-09T04:41:22.090Z,7.10
2022-09-09T04:43:54.578Z,8.65
2022-09-09T04:46:23.948Z,6.90
2022-09-09T04:48:52.221Z,8.88
2022-09-09T04:51:19.760Z,7.65
2022-09-09T04:53:50.750Z,6.78
2022-09-09T04:56:19.172Z,7.03
2022-09-09T04:58:51.366Z,6.03
2022-09-09T05:01:24.218Z,4.85
2022-09-09T05:03:53.830Z,5.65
2022-09-09T05:06:23.528Z,5.13
2022-09-09T05:08:54.877Z,6.95
2022-09-09T05:11:31.029Z,4.35
2022-09-09T05:14:03.932Z,5.07
2022-09-09T05:16:32.280Z,4.72
2022-09-09T05:19:00.268Z,7.20
2022-09-09T05:21:35.761Z,5.93
2022-09-09T05:24:02.928Z,4.50
2022-09-09T05:26:30.524Z,5.55
2022-09-09T05:29:00.135Z,4.75
2022-09-09T05:31:28.784Z,5.50
2022-09-09T05:33:55.821Z,4.18
2022-09-09T05:36:24.238Z,5.65
2022-09-09T05:38:55.400Z,3.55
2022-09-09T05:41:24.253Z,5.57
2022-09-09T05:43:54.252Z,4.70
2022-09-09T05:46:26.011Z,3.70
2022-09-09T05:48:55.162Z,4.55
2022-09-09T05:51:33.281Z,3.67
2022-09-09T05:54:05.301Z,4.93
2022-09-09T05:56:35.964Z,3.33
2022-09-09T05:59:03.024Z,3.63
2022-09-09T06:01:33.167Z,4.60
2022-09-09T06:04:02.023Z,4.25
2022-09-09T06:06:37.872Z,3.30
2022-09-09T06:09:11.472Z,5.80
2022-09-09T06:11:43.112Z,3.85
2022-09-09T06:14:11.254Z,2.85
2022-09-09T06:16:40.218Z,3.92
2022-09-09T06:19:15.419Z,3.85
2022-09-09T06:21:43.766Z,4.07
2022-09-09T06:24:14.799Z,3.60
2022-09-09T06:26:42.240Z,3.88
2022-09-09T06:29:12.006Z,6.15
2022-09-09T06:31:39.906Z,4.18
2022-09-09T06:34:14.287Z,5.53
2022-09-09T06:36:46.947Z,4.70
2022-09-09T06:39:15.295Z,3.15
2022-09-09T06:41:43.938Z,4.60
2022-09-09T06:44:35.240Z,5.25
2022-09-09T06:47:03.812Z,4.65
2022-09-09T06:49:31.750Z,3.85
2022-09-09T06:51:59.247Z,3.17
2022-09-09T06:54:27.204Z,4.22
2022-09-09T06:56:55.005Z,2.53
2022-09-09T06:59:24.287Z,6.25
2022-09-09T07:01:56.224Z,5.15
2022-09-09T07:04:23.790Z,3.78
2022-09-09T07:06:51.279Z,4.90
2022-09-09T07:09:23.308Z,2.58
2022-09-09T07:11:53.884Z,2.53
2022-09-09T07:14:23.751Z,3.13
2022-09-09T07:17:01.376Z,3.03
2022-09-09T07:19:35.211Z,5.45
2022-09-09T07:22:04.726Z,5.78
2022-09-09T07:24:32.860Z,2.50
2022-09-09T07:27:00.690Z,5.07
2022-09-09T07:29:27.905Z,2.85
2022-09-09T07:31:55.025Z,5.20
2022-09-09T07:34:27.705Z,4.00
2022-09-09T07:36:54.677Z,2.38
2022-09-09T07:39:21.806Z,4.20
2022-09-09T07:41:55.739Z,2.90
2022-09-09T07:44:26.046Z,2.88
2022-09-09T07:47:11.979Z,1.52
2022-09-09T07:49:51.008Z,2.78
2022-09-09T07:52:23.283Z,2.28
2022-09-09T07:54:54.650Z,2.08
2022-09-09T07:57:22.639Z,5.63
2022-09-09T07:59:51.854Z,5.95
2022-09-09T08:02:19.072Z,4.38
2022-09-09T08:04:46.542Z,5.65
2022-09-09T08:07:14.908Z,6.10
2022-09-09T08:09:52.251Z,4.45
2022-09-09T08:12:24.460Z,3.80
2022-09-09T08:14:52.997Z,2.90
2022-09-09T08:17:23.268Z,2.47
2022-09-09T08:19:51.537Z,4.07
2022-09-09T08:22:23.226Z,5.60
2022-09-09T08:24:51.072Z,4.18
2022-09-09T08:27:19.118Z,7.60
2022-09-09T08:29:46.116Z,5.53
2022-09-09T08:32:14.227Z,6.60
2022-09-09T08:34:46.689Z,4.72
2022-09-09T08:37:20.580Z,7.38
2022-09-09T08:39:54.045Z,5.78
2022-09-09T08:42:30.038Z,2.78
2022-09-09T08:45:21.096Z,5.27
2022-09-09T08:47:56.401Z,9.00
2022-09-09T08:50:29.329Z,3.97
2022-09-09T08:53:23.224Z,3.45
2022-09-09T08:55:59.988Z,2.17
2022-09-09T08:58:47.992Z,3.22
2022-09-09T09:01:41.589Z,3.15
2022-09-09T09:04:18.563Z,3.60
2022-09-09T09:06:55.296Z,5.43
2022-09-09T09:09:59.823Z,4.03
2022-09-09T09:12:39.983Z,2.10
2022-09-09T09:17:45.174Z,3.95
2022-09-09T09:20:17.596Z,2.42
2022-09-09T09:22:52.156Z,1.45
2022-09-09T09:25:24.142Z,4.07
2022-09-09T09:28:07.187Z,3.58
2022-09-09T09:33:25.860Z,2.40
2022-09-09T09:35:53.122Z,1.95
2022-09-09T09:41:13.625Z,2.72
2022-09-09T09:43:43.767Z,2.55
2022-09-09T09:46:24.807Z,1.90
2022-09-09T09:49:06.612Z,2.08
2022-09-09T09:51:35.349Z,4.22
2022-09-09T09:54:19.777Z,2.28
2022-09-09T09:56:52.828Z,2.15
2022-09-09T09:59:29.673Z,2.53
2022-09-09T10:02:16.326Z,3.88
2022-09-09T10:04:44.831Z,3.28
2022-09-09T10:07:13.998Z,2.95
2022-09-09T10:09:41.889Z,1.48
2022-09-09T10:12:46.416Z,3.75
2022-09-09T10:15:33.436Z,3.33
2022-09-09T10:18:31.295Z,2.47
2022-09-09T10:21:23.334Z,1.38
2022-09-09T10:24:06.997Z,3.00
2022-09-09T10:26:40.953Z,2.75
2022-09-09T10:29:45.689Z,1.42
2022-09-09T10:32:47.465Z,6.50
2022-09-09T10:35:30.563Z,2.92
2022-09-09T10:38:18.212Z,1.80
2022-09-09T10:40:54.353Z,2.00
2022-09-09T10:43:33.347Z,3.93
2022-09-09T10:46:12.723Z,1.83
2022-09-09T10:48:50.814Z,1.60
2022-09-09T10:51:38.085Z,1.85
2022-09-09T10:54:20.099Z,1.50
2022-09-09T10:56:57.813Z,3.30
2022-09-09T10:59:30.624Z,2.67
2022-09-09T11:02:14.000Z,2.63
2022-09-09T11:04:54.963Z,1.52
2022-09-09T11:07:44.319Z,1.98
2022-09-09T11:10:53.494Z,3.67
2022-09-09T11:13:44.397Z,2.53
2022-09-09T11:16:42.956Z,2.33
2022-09-09T11:19:23.068Z,1.92
2022-09-09T11:21:52.164Z,2.15
2022-09-09T11:24:28.560Z,3.85
2022-09-09T11:27:20.330Z,2.72
2022-09-09T11:30:13.013Z,2.75
2022-09-09T11:32:49.026Z,4.43
2022-09-09T11:35:49.374Z,4.30
2022-09-09T11:38:22.585Z,3.08
2022-09-09T11:40:58.981Z,3.03
2022-09-09T11:43:34.836Z,3.00
2022-09-09T11:46:03.900Z,2.30
2022-09-09T11:48:35.878Z,3.90
2022-09-09T11:51:11.096Z,3.38
2022-09-09T11:54:29.698Z,3.60
2022-09-09T11:56:57.903Z,2.10
2022-09-09T11:59:31.059Z,3.28
2022-09-09T12:02:03.103Z,3.78
2022-09-09T12:04:40.935Z,2.85
2022-09-09T12:07:10.917Z,3.40
2022-09-09T12:09:44.283Z,2.08
2022-09-09T12:12:14.731Z,4.63
2022-09-09T12:14:57.872Z,2.28
2022-09-09T12:17:27.805Z,2.97
2022-09-09T12:20:07.127Z,1.85
2022-09-09T12:22:39.998Z,1.90
2022-09-09T12:25:36.742Z,1.73
2022-09-09T12:28:17.471Z,2.55
2022-09-09T12:31:05.627Z,3.95
2022-09-09T12:33:46.366Z,2.40
2022-09-09T12:36:18.112Z,2.63
2022-09-09T12:38:46.846Z,2.47
2022-09-09T12:41:40.245Z,2.85
2022-09-09T12:44:11.505Z,1.95
2022-09-09T12:46:45.489Z,3.60
2022-09-09T12:49:36.794Z,5.65
2022-09-09T12:52:16.406Z,3.05
2022-09-09T12:54:52.364Z,2.30
2022-09-09T12:57:19.605Z,2.58
2022-09-09T12:59:47.078Z,4.40
2022-09-09T13:02:29.138Z,3.03
2022-09-09T13:05:08.332Z,4.65
2022-09-09T13:07:35.431Z,2.75
2022-09-09T13:10:02.728Z,2.67
2022-09-09T13:12:30.790Z,2.85
2022-09-09T13:14:58.533Z,2.60
2022-09-09T13:17:30.215Z,3.97
2022-09-09T13:19:58.084Z,2.75
2022-09-09T13:22:34.052Z,2.75
2022-09-09T13:25:18.742Z,5.78
2022-09-09T13:27:56.887Z,2.85
2022-09-09T13:30:32.485Z,2.67
2022-09-09T13:33:18.480Z,3.53
2022-09-09T13:35:53.354Z,2.95
2022-09-09T13:38:20.588Z,2.30
2022-09-09T13:41:05.624Z,2.38
2022-09-09T13:43:39.564Z,2.00
2022-09-09T13:46:36.180Z,2.42
2022-09-09T13:49:19.839Z,2.95
2022-09-09T13:51:50.072Z,6.78
2022-09-09T13:54:19.533Z,2.63
2022-09-09T13:56:48.624Z,3.03
2022-09-09T13:59:19.966Z,4.82
2022-09-09T14:01:47.935Z,7.32
2022-09-09T14:04:15.526Z,3.47
2022-09-09T14:06:44.601Z,8.63
2022-09-09T14:09:14.487Z,7.60
2022-09-09T14:11:42.150Z,5.80
2022-09-09T14:14:09.406Z,5.97
2022-09-09T14:16:36.799Z,4.75
2022-09-09T14:19:03.910Z,7.65
2022-09-09T14:21:31.265Z,8.25
2022-09-09T14:23:59.230Z,8.43
2022-09-09T14:26:27.075Z,9.07
2022-09-09T14:28:55.760Z,6.10
2022-09-09T14:31:25.082Z,6.15
2022-09-09T14:33:52.710Z,7.03
2022-09-09T14:36:20.245Z,6.70
2022-09-09T14:38:47.843Z,6.60
2022-09-09T14:41:21.018Z,7.05
2022-09-09T14:43:48.215Z,6.82
2022-09-09T14:46:17.414Z,3.95
2022-09-09T14:48:49.856Z,8.05
2022-09-09T14:51:20.678Z,3.78
2022-09-09T14:53:47.966Z,3.35
2022-09-09T14:56:18.897Z,4.40
2022-09-09T14:58:47.579Z,3.47
2022-09-09T15:01:17.505Z,6.85
2022-09-09T15:03:59.254Z,6.22
2022-09-09T15:06:31.131Z,3.95
2022-09-09T15:09:01.463Z,4.25
2022-09-09T15:11:35.628Z,6.97
2022-09-09T15:14:02.770Z,5.50
2022-09-09T15:16:30.187Z,5.82
2022-09-09T15:19:00.263Z,4.45
2022-09-09T15:21:33.936Z,4.07
2022-09-09T15:24:01.516Z,4.65
2022-09-09T15:26:35.221Z,3.97
2022-09-09T15:29:02.516Z,5.20
2022-09-09T15:31:31.692Z,5.68
2022-09-09T15:34:04.129Z,4.43
2022-09-09T15:36:33.206Z,6.10
2022-09-09T15:39:01.757Z,4.03
2022-09-09T15:41:30.119Z,5.25
2022-09-09T15:43:57.975Z,5.88
2022-09-09T15:46:33.425Z,6.15
2022-09-09T15:49:07.820Z,5.75
2022-09-09T15:51:43.692Z,4.32
2022-09-09T15:54:14.822Z,3.67
2022-09-09T15:56:42.636Z,7.18
2022-09-09T15:59:10.384Z,4.90
2022-09-09T16:01:37.860Z,5.05
2022-09-09T16:04:06.305Z,5.55
2022-09-09T16:06:34.448Z,5.78
2022-09-09T16:09:05.292Z,4.90
2022-09-09T16:11:35.163Z,6.22
2022-09-09T16:14:03.334Z,6.40
2022-09-09T16:16:31.402Z,5.00
2022-09-09T16:19:01.076Z,6.65
2022-09-09T16:21:32.012Z,6.25
2022-09-09T16:24:01.462Z,5.05
2022-09-09T16:26:31.791Z,6.43
2022-09-09T16:29:02.374Z,4.50
2022-09-09T16:31:30.791Z,4.32
2022-09-09T16:33:59.038Z,7.75
2022-09-09T16:36:33.367Z,6.95
2022-09-09T16:39:02.751Z,9.13
2022-09-09T16:41:31.814Z,15.25
2022-09-09T16:44:04.594Z,12.82
2022-09-09T16:46:35.088Z,13.88
2022-09-09T16:49:04.748Z,15.35
2022-09-09T16:51:35.759Z,17.35
2022-09-09T16:54:07.221Z,18.58
2022-09-09T16:56:42.728Z,18.42
2022-09-09T16:59:12.929Z,15.02
2022-09-09T17:01:42.130Z,12.00
2022-09-09T17:04:14.351Z,14.35
2022-09-09T17:06:42.639Z,13.40
2022-09-09T17:09:12.216Z,10.35
2022-09-09T17:11:40.864Z,9.95
2022-09-09T17:14:10.580Z,9.20
2022-09-09T17:16:40.716Z,13.38
2022-09-09T17:19:10.159Z,8.35
2022-09-09T17:21:45.752Z,8.07
2022-09-09T17:24:26.490Z,7.45
2022-09-09T17:26:54.482Z,7.88
2022-09-09T17:29:22.542Z,8.23
2022-09-09T17:31:49.718Z,7.68
2022-09-09T17:34:16.985Z,6.88
2022-09-09T17:36:44.394Z,8.00
2022-09-09T17:39:11.534Z,6.35
2022-09-09T17:41:40.692Z,10.07
2022-09-09T17:46:43.579Z,8.60
2022-09-09T17:49:13.544Z,9.40
2022-09-09T17:51:42.709Z,10.38
2022-09-09T17:54:21.109Z,8.52
2022-09-09T17:56:49.137Z,9.70
2022-09-09T17:59:18.249Z,10.50
2022-09-09T18:01:48.247Z,9.13
2022-09-09T18:04:17.635Z,9.68
2022-09-09T18:06:49.463Z,8.55
2022-09-09T18:09:23.475Z,7.88
2022-09-09T18:11:54.640Z,12.60
2022-09-09T18:14:32.734Z,9.43
2022-09-09T18:17:01.857Z,9.05
2022-09-09T18:19:31.980Z,10.52
2022-09-09T18:22:02.658Z,10.75
2022-09-09T18:24:30.770Z,9.55
2022-09-09T18:26:58.350Z,12.98
2022-09-09T18:29:25.858Z,11.27
2022-09-09T18:31:54.835Z,9.30
2022-09-09T18:34:25.848Z,11.95
2022-09-09T18:36:56.132Z,9.38
2022-09-09T18:39:27.637Z,9.30
2022-09-09T18:41:59.879Z,10.02
2022-09-09T18:44:30.568Z,8.88
2022-09-09T18:46:57.983Z,11.43
2022-09-09T18:49:25.793Z,9.07
2022-09-09T18:51:53.582Z,11.27
2022-09-09T18:54:23.408Z,9.15
2022-09-09T18:56:51.255Z,11.25
2022-09-09T18:59:21.646Z,10.70
2022-09-09T19:01:50.846Z,11.00
2022-09-09T19:04:19.619Z,9.23
2022-09-09T19:06:48.283Z,11.40
2022-09-09T19:09:17.602Z,11.00
2022-09-09T19:11:45.103Z,9.98
2022-09-09T19:14:15.666Z,12.50
2022-09-09T19:16:45.418Z,9.75
2022-09-09T19:19:22.198Z,10.80
2022-09-09T19:21:51.812Z,13.20
2022-09-09T19:24:24.625Z,11.90
2022-09-09T19:26:54.587Z,11.40
2022-09-09T19:29:24.851Z,11.70
2022-09-09T19:32:31.619Z,11.73
2022-09-09T19:34:42.033Z,12.13
2022-09-09T19:37:09.069Z,11.77
2022-09-09T19:39:36.082Z,11.35
2022-09-09T19:42:03.341Z,13.55
2022-09-09T19:44:30.394Z,13.48
2022-09-09T19:46:59.749Z,13.02
2022-09-09T19:49:26.899Z,11.85
2022-09-09T19:51:55.944Z,13.52
2022-09-09T19:54:23.182Z,12.23
2022-09-09T19:56:50.257Z,11.77
2022-09-09T19:59:17.337Z,11.48
2022-09-09T20:01:45.295Z,12.88
2022-09-09T20:04:14.953Z,12.30
2022-09-09T20:06:44.506Z,13.32
2022-09-09T20:09:14.800Z,13.85
2022-09-09T20:11:43.537Z,13.05
2022-09-09T20:14:11.818Z,17.27
2022-09-09T20:16:39.816Z,11.65
2022-09-09T20:19:08.290Z,16.48
2022-09-09T20:21:38.521Z,14.30
2022-09-09T20:24:08.722Z,17.83
2022-09-09T20:26:37.700Z,16.33
2022-09-09T20:29:07.922Z,16.42
2022-09-09T20:31:37.296Z,13.10
2022-09-09T20:34:06.307Z,12.38
2022-09-09T20:36:35.712Z,13.10
2022-09-09T20:39:08.427Z,17.15
2022-09-09T20:41:38.655Z,14.65
2022-09-09T20:44:09.658Z,13.25
2022-09-09T20:46:38.798Z,12.43
2022-09-09T20:49:08.227Z,16.58
2022-09-09T20:51:36.088Z,13.82
2022-09-09T20:54:04.598Z,11.05
2022-09-09T20:56:37.698Z,14.45
2022-09-09T20:59:06.470Z,14.20
2022-09-09T21:01:33.927Z,14.52
2022-09-09T21:04:01.061Z,13.60
2022-09-09T21:06:28.055Z,14.40
2022-09-09T21:08:55.129Z,15.15
2022-09-09T21:11:22.267Z,14.85
2022-09-09T21:13:49.438Z,12.82
2022-09-09T21:16:21.373Z,13.55
2022-09-09T21:18:49.406Z,16.17
2022-09-09T21:21:19.310Z,16.88
2022-09-09T21:23:46.460Z,14.32
2022-09-09T21:26:13.463Z,13.13
2022-09-09T21:28:40.823Z,13.65
2022-09-09T21:31:09.259Z,14.82
2022-09-09T21:33:36.764Z,14.00
2022-09-09T21:36:06.260Z,17.58
2022-09-09T21:38:34.397Z,14.27
2022-09-09T21:41:05.687Z,13.90
2022-09-09T21:43:33.470Z,11.68
2022-09-09T21:46:04.344Z,15.43
2022-09-09T21:48:31.697Z,14.38
2022-09-09T21:51:04.581Z,14.57
2022-09-09T21:53:32.474Z,12.38
2022-09-09T21:56:06.417Z,13.60
2022-09-09T21:58:34.763Z,14.82
2022-09-09T22:01:02.577Z,13.63
2022-09-09T22:03:29.581Z,13.73
2022-09-09T22:05:56.548Z,14.50
2022-09-09T22:08:23.644Z,10.80
2022-09-09T22:10:50.742Z,12.18
2022-09-09T22:13:18.277Z,10.93
2022-09-09T22:15:46.218Z,13.88
2022-09-09T22:18:16.081Z,14.20
2022-09-09T22:20:45.352Z,12.18
2022-09-09T22:23:13.403Z,14.88
2022-09-09T22:25:41.212Z,12.18
2022-09-09T22:28:10.036Z,13.70
2022-09-09T22:30:38.164Z,13.30
2022-09-09T22:33:05.474Z,13.70
2022-09-09T22:35:33.635Z,14.50
2022-09-09T22:38:00.836Z,13.60
2022-09-09T22:40:27.913Z,14.60
2022-09-09T22:42:55.059Z,10.95
2022-09-09T22:45:22.163Z,15.57
2022-09-09T22:47:49.208Z,16.00
2022-09-09T22:50:16.870Z,10.88
2022-09-09T22:52:43.920Z,15.82
2022-09-09T22:55:11.062Z,12.15
2022-09-09T22:57:38.125Z,11.50
2022-09-09T23:00:09.156Z,12.38
2022-09-09T23:02:40.812Z,11.07
2022-09-09T23:05:11.425Z,13.02
2022-09-09T23:07:38.419Z,16.33
2022-09-09T23:10:06.916Z,12.18
2022-09-09T23:12:34.072Z,15.73
2022-09-09T23:15:01.145Z,13.10
2022-09-09T23:17:31.374Z,15.15
2022-09-09T23:19:58.463Z,12.50
2022-09-09T23:22:26.358Z,14.00
2022-09-09T23:24:54.121Z,16.38
2022-09-09T23:27:21.612Z,11.98
2022-09-09T23:29:49.789Z,12.25
2022-09-09T23:32:17.829Z,11.45
2022-09-09T23:34:47.887Z,12.23
2022-09-09T23:37:15.223Z,12.13
2022-09-09T23:39:43.668Z,11.68
2022-09-09T23:42:12.016Z,14.13
2022-09-09T23:44:39.692Z,11.57
2022-09-09T23:47:10.278Z,10.60
2022-09-09T23:49:39.620Z,11.48
2022-09-09T23:52:07.309Z,15.77
2022-09-09T23:54:35.711Z,13.90
2022-09-09T23:57:03.956Z,10.52
2022-09-09T23:59:31.807Z,10.27
